sensor_id;sensor_type;location;lat;lon;timestamp;P1;durP1;ratioP1;P2;durP2;ratioP2
22191;SDS011;11261;52.456;10.850;2023-07-13T00:00:06;4.03;;;1.67;;
22191;SDS011;11261;52.456;10.850;2023-07-13T00:02:36;2.67;;;1.80;;
22191;SDS011;11261;52.456;10.850;2023-07-13T00:05:05;2.50;;;1.58;;
22191;SDS011;11261;52.456;10.850;2023-07-13T00:07:36;3.30;;;1.73;;
22191;SDS011;11261;52.456;10.850;2023-07-13T00:10:05;2.53;;;1.50;;
22191;SDS011;11261;52.456;10.850;2023-07-13T00:12:35;2.63;;;1.50;;
22191;SDS011;11261;52.456;10.850;2023-07-13T00:15:09;2.17;;;1.48;;
22191;SDS011;11261;52.456;10.850;2023-07-13T00:17:39;1.80;;;1.35;;
22191;SDS011;11261;52.456;10.850;2023-07-13T00:20:08;2.78;;;1.50;;
22191;SDS011;11261;52.456;10.850;2023-07-13T00:22:38;2.97;;;1.70;;
22191;SDS011;11261;52.456;10.850;2023-07-13T00:25:08;3.58;;;1.80;;
22191;SDS011;11261;52.456;10.850;2023-07-13T00:27:38;3.75;;;1.90;;
22191;SDS011;11261;52.456;10.850;2023-07-13T00:30:06;2.67;;;1.67;;
22191;SDS011;11261;52.456;10.850;2023-07-13T00:32:35;4.07;;;2.08;;
22191;SDS011;11261;52.456;10.850;2023-07-13T00:35:05;6.70;;;2.80;;
22191;SDS011;11261;52.456;10.850;2023-07-13T00:37:35;1.85;;;1.60;;
22191;SDS011;11261;52.456;10.850;2023-07-13T00:40:06;2.60;;;1.80;;
22191;SDS011;11261;52.456;10.850;2023-07-13T00:42:35;2.50;;;1.85;;
22191;SDS011;11261;52.456;10.850;2023-07-13T00:45:05;3.97;;;2.08;;
22191;SDS011;11261;52.456;10.850;2023-07-13T00:47:54;3.88;;;1.80;;
22191;SDS011;11261;52.456;10.850;2023-07-13T00:50:24;4.10;;;1.60;;
22191;SDS011;11261;52.456;10.850;2023-07-13T00:52:53;2.85;;;1.83;;
22191;SDS011;11261;52.456;10.850;2023-07-13T00:55:26;3.85;;;1.65;;
22191;SDS011;11261;52.456;10.850;2023-07-13T00:57:55;2.00;;;1.45;;
22191;SDS011;11261;52.456;10.850;2023-07-13T01:00:23;3.83;;;1.77;;
22191;SDS011;11261;52.456;10.850;2023-07-13T01:02:54;2.58;;;1.77;;
22191;SDS011;11261;52.456;10.850;2023-07-13T01:05:23;4.43;;;2.20;;
22191;SDS011;11261;52.456;10.850;2023-07-13T01:07:52;4.40;;;1.90;;
22191;SDS011;11261;52.456;10.850;2023-07-13T01:10:22;3.38;;;1.98;;
22191;SDS011;11261;52.456;10.850;2023-07-13T01:12:53;2.22;;;1.70;;
22191;SDS011;11261;52.456;10.850;2023-07-13T01:15:35;1.92;;;1.48;;
22191;SDS011;11261;52.456;10.850;2023-07-13T01:18:05;4.38;;;1.80;;
22191;SDS011;11261;52.456;10.850;2023-07-13T01:20:37;3.33;;;1.88;;
22191;SDS011;11261;52.456;10.850;2023-07-13T01:23:09;4.13;;;2.10;;
22191;SDS011;11261;52.456;10.850;2023-07-13T01:25:39;2.83;;;1.70;;
22191;SDS011;11261;52.456;10.850;2023-07-13T01:28:08;2.08;;;1.65;;
22191;SDS011;11261;52.456;10.850;2023-07-13T01:30:36;3.22;;;1.80;;
22191;SDS011;11261;52.456;10.850;2023-07-13T01:33:06;1.55;;;1.27;;
22191;SDS011;11261;52.456;10.850;2023-07-13T01:35:36;1.75;;;1.52;;
22191;SDS011;11261;52.456;10.850;2023-07-13T01:38:04;3.75;;;2.05;;
22191;SDS011;11261;52.456;10.850;2023-07-13T01:40:35;3.90;;;2.03;;
22191;SDS011;11261;52.456;10.850;2023-07-13T01:43:04;1.80;;;1.50;;
22191;SDS011;11261;52.456;10.850;2023-07-13T01:45:33;2.58;;;1.60;;
22191;SDS011;11261;52.456;10.850;2023-07-13T01:48:01;3.90;;;1.65;;
22191;SDS011;11261;52.456;10.850;2023-07-13T01:50:30;2.08;;;1.80;;
22191;SDS011;11261;52.456;10.850;2023-07-13T01:52:58;4.28;;;1.73;;
22191;SDS011;11261;52.456;10.850;2023-07-13T01:55:28;2.15;;;1.40;;
22191;SDS011;11261;52.456;10.850;2023-07-13T01:57:58;4.05;;;1.40;;
22191;SDS011;11261;52.456;10.850;2023-07-13T02:00:26;4.57;;;1.88;;
22191;SDS011;11261;52.456;10.850;2023-07-13T02:02:54;1.60;;;1.50;;
22191;SDS011;11261;52.456;10.850;2023-07-13T02:05:23;2.10;;;1.90;;
22191;SDS011;11261;52.456;10.850;2023-07-13T02:07:52;5.22;;;1.95;;
22191;SDS011;11261;52.456;10.850;2023-07-13T02:10:20;4.50;;;1.50;;
22191;SDS011;11261;52.456;10.850;2023-07-13T02:12:50;4.15;;;1.58;;
22191;SDS011;11261;52.456;10.850;2023-07-13T02:15:18;2.67;;;1.63;;
22191;SDS011;11261;52.456;10.850;2023-07-13T02:17:47;3.03;;;1.60;;
22191;SDS011;11261;52.456;10.850;2023-07-13T02:20:15;2.83;;;1.70;;
22191;SDS011;11261;52.456;10.850;2023-07-13T02:22:43;6.60;;;1.60;;
22191;SDS011;11261;52.456;10.850;2023-07-13T02:25:12;3.83;;;1.70;;
22191;SDS011;11261;52.456;10.850;2023-07-13T02:27:40;2.65;;;1.67;;
22191;SDS011;11261;52.456;10.850;2023-07-13T02:30:10;4.72;;;1.80;;
22191;SDS011;11261;52.456;10.850;2023-07-13T02:32:39;3.33;;;1.58;;
22191;SDS011;11261;52.456;10.850;2023-07-13T02:35:07;3.65;;;1.60;;
22191;SDS011;11261;52.456;10.850;2023-07-13T02:37:36;2.90;;;1.83;;
22191;SDS011;11261;52.456;10.850;2023-07-13T02:40:05;2.67;;;1.40;;
22191;SDS011;11261;52.456;10.850;2023-07-13T02:42:34;2.65;;;1.52;;
22191;SDS011;11261;52.456;10.850;2023-07-13T02:45:05;2.55;;;1.73;;
22191;SDS011;11261;52.456;10.850;2023-07-13T02:47:36;2.40;;;1.70;;
22191;SDS011;11261;52.456;10.850;2023-07-13T02:50:05;3.20;;;1.50;;
22191;SDS011;11261;52.456;10.850;2023-07-13T02:52:34;1.52;;;1.33;;
22191;SDS011;11261;52.456;10.850;2023-07-13T02:55:02;1.83;;;1.25;;
22191;SDS011;11261;52.456;10.850;2023-07-13T02:57:31;4.05;;;1.55;;
22191;SDS011;11261;52.456;10.850;2023-07-13T03:00:00;3.47;;;1.55;;
22191;SDS011;11261;52.456;10.850;2023-07-13T03:02:31;5.32;;;1.48;;
22191;SDS011;11261;52.456;10.850;2023-07-13T03:05:02;2.67;;;1.40;;
22191;SDS011;11261;52.456;10.850;2023-07-13T03:07:31;4.97;;;1.70;;
22191;SDS011;11261;52.456;10.850;2023-07-13T03:09:59;2.67;;;1.42;;
22191;SDS011;11261;52.456;10.850;2023-07-13T03:12:28;4.13;;;1.70;;
22191;SDS011;11261;52.456;10.850;2023-07-13T03:14:57;4.72;;;1.85;;
22191;SDS011;11261;52.456;10.850;2023-07-13T03:17:25;2.20;;;1.50;;
22191;SDS011;11261;52.456;10.850;2023-07-13T03:19:54;3.58;;;1.90;;
22191;SDS011;11261;52.456;10.850;2023-07-13T03:22:24;2.33;;;1.88;;
22191;SDS011;11261;52.456;10.850;2023-07-13T03:24:54;5.47;;;1.70;;
22191;SDS011;11261;52.456;10.850;2023-07-13T03:27:23;2.38;;;1.73;;
22191;SDS011;11261;52.456;10.850;2023-07-13T03:29:51;3.88;;;1.90;;
22191;SDS011;11261;52.456;10.850;2023-07-13T03:32:19;2.97;;;2.05;;
22191;SDS011;11261;52.456;10.850;2023-07-13T03:34:48;4.25;;;2.58;;
22191;SDS011;11261;52.456;10.850;2023-07-13T03:37:16;2.58;;;1.80;;
22191;SDS011;11261;52.456;10.850;2023-07-13T03:39:46;3.20;;;1.77;;
22191;SDS011;11261;52.456;10.850;2023-07-13T03:42:14;3.72;;;1.70;;
22191;SDS011;11261;52.456;10.850;2023-07-13T03:44:43;2.13;;;1.92;;
22191;SDS011;11261;52.456;10.850;2023-07-13T03:47:16;4.20;;;2.00;;
22191;SDS011;11261;52.456;10.850;2023-07-13T03:49:45;2.47;;;1.80;;
22191;SDS011;11261;52.456;10.850;2023-07-13T03:52:13;2.55;;;1.40;;
22191;SDS011;11261;52.456;10.850;2023-07-13T03:54:41;3.25;;;1.88;;
22191;SDS011;11261;52.456;10.850;2023-07-13T03:57:11;2.88;;;2.00;;
22191;SDS011;11261;52.456;10.850;2023-07-13T03:59:40;5.28;;;2.40;;
22191;SDS011;11261;52.456;10.850;2023-07-13T04:02:08;5.63;;;2.03;;
22191;SDS011;11261;52.456;10.850;2023-07-13T04:04:36;3.08;;;1.60;;
22191;SDS011;11261;52.456;10.850;2023-07-13T04:07:07;6.22;;;2.17;;
22191;SDS011;11261;52.456;10.850;2023-07-13T04:09:35;3.38;;;2.25;;
22191;SDS011;11261;52.456;10.850;2023-07-13T04:12:04;3.42;;;1.92;;
22191;SDS011;11261;52.456;10.850;2023-07-13T04:14:34;5.65;;;2.30;;
22191;SDS011;11261;52.456;10.850;2023-07-13T04:17:02;3.15;;;2.05;;
22191;SDS011;11261;52.456;10.850;2023-07-13T04:19:31;3.03;;;2.08;;
22191;SDS011;11261;52.456;10.850;2023-07-13T04:21:59;3.00;;;2.10;;
22191;SDS011;11261;52.456;10.850;2023-07-13T04:24:28;2.72;;;1.73;;
22191;SDS011;11261;52.456;10.850;2023-07-13T04:26:56;3.03;;;1.70;;
22191;SDS011;11261;52.456;10.850;2023-07-13T04:29:26;4.03;;;2.03;;
22191;SDS011;11261;52.456;10.850;2023-07-13T04:31:55;4.50;;;1.80;;
22191;SDS011;11261;52.456;10.850;2023-07-13T04:34:24;3.42;;;2.10;;
22191;SDS011;11261;52.456;10.850;2023-07-13T04:36:52;2.88;;;1.40;;
22191;SDS011;11261;52.456;10.850;2023-07-13T04:39:21;2.42;;;1.63;;
22191;SDS011;11261;52.456;10.850;2023-07-13T04:41:49;4.20;;;1.65;;
22191;SDS011;11261;52.456;10.850;2023-07-13T04:44:18;2.70;;;1.67;;
22191;SDS011;11261;52.456;10.850;2023-07-13T04:46:46;2.55;;;1.90;;
22191;SDS011;11261;52.456;10.850;2023-07-13T04:49:15;3.22;;;1.60;;
22191;SDS011;11261;52.456;10.850;2023-07-13T04:51:44;2.13;;;1.58;;
22191;SDS011;11261;52.456;10.850;2023-07-13T04:54:12;3.25;;;1.75;;
22191;SDS011;11261;52.456;10.850;2023-07-13T04:56:41;2.67;;;1.30;;
22191;SDS011;11261;52.456;10.850;2023-07-13T04:59:09;2.88;;;1.85;;
22191;SDS011;11261;52.456;10.850;2023-07-13T05:01:37;2.13;;;1.60;;
22191;SDS011;11261;52.456;10.850;2023-07-13T05:04:07;2.90;;;1.65;;
22191;SDS011;11261;52.456;10.850;2023-07-13T05:06:37;4.65;;;1.83;;
22191;SDS011;11261;52.456;10.850;2023-07-13T05:09:05;3.33;;;1.60;;
22191;SDS011;11261;52.456;10.850;2023-07-13T05:11:33;3.95;;;1.83;;
22191;SDS011;11261;52.456;10.850;2023-07-13T05:14:02;2.40;;;1.40;;
22191;SDS011;11261;52.456;10.850;2023-07-13T05:16:30;2.53;;;1.80;;
22191;SDS011;11261;52.456;10.850;2023-07-13T05:18:59;3.92;;;1.45;;
22191;SDS011;11261;52.456;10.850;2023-07-13T05:21:27;3.90;;;2.05;;
22191;SDS011;11261;52.456;10.850;2023-07-13T05:23:57;2.17;;;1.40;;
22191;SDS011;11261;52.456;10.850;2023-07-13T05:26:44;4.28;;;1.52;;
22191;SDS011;11261;52.456;10.850;2023-07-13T05:29:13;3.00;;;1.75;;
22191;SDS011;11261;52.456;10.850;2023-07-13T05:31:41;3.30;;;1.67;;
22191;SDS011;11261;52.456;10.850;2023-07-13T05:34:10;3.47;;;1.40;;
22191;SDS011;11261;52.456;10.850;2023-07-13T05:36:38;3.17;;;1.48;;
22191;SDS011;11261;52.456;10.850;2023-07-13T05:39:09;3.13;;;1.38;;
22191;SDS011;11261;52.456;10.850;2023-07-13T05:41:38;3.55;;;1.50;;
22191;SDS011;11261;52.456;10.850;2023-07-13T05:44:06;4.68;;;1.80;;
22191;SDS011;11261;52.456;10.850;2023-07-13T05:46:34;6.93;;;1.48;;
22191;SDS011;11261;52.456;10.850;2023-07-13T05:49:03;3.08;;;1.40;;
22191;SDS011;11261;52.456;10.850;2023-07-13T05:51:31;6.35;;;1.50;;
22191;SDS011;11261;52.456;10.850;2023-07-13T05:53:59;2.97;;;1.42;;
22191;SDS011;11261;52.456;10.850;2023-07-13T05:56:29;2.58;;;1.50;;
22191;SDS011;11261;52.456;10.850;2023-07-13T05:58:57;4.35;;;1.02;;
22191;SDS011;11261;52.456;10.850;2023-07-13T06:01:25;4.35;;;1.52;;
22191;SDS011;11261;52.456;10.850;2023-07-13T06:03:54;4.15;;;1.33;;
22191;SDS011;11261;52.456;10.850;2023-07-13T06:06:22;4.97;;;1.38;;
22191;SDS011;11261;52.456;10.850;2023-07-13T06:08:51;3.13;;;1.25;;
22191;SDS011;11261;52.456;10.850;2023-07-13T06:11:20;3.08;;;1.10;;
22191;SDS011;11261;52.456;10.850;2023-07-13T06:13:51;4.57;;;1.55;;
22191;SDS011;11261;52.456;10.850;2023-07-13T06:16:20;5.60;;;1.92;;
22191;SDS011;11261;52.456;10.850;2023-07-13T06:18:48;2.88;;;1.27;;
22191;SDS011;11261;52.456;10.850;2023-07-13T06:21:18;4.90;;;1.38;;
22191;SDS011;11261;52.456;10.850;2023-07-13T06:23:48;3.72;;;1.75;;
22191;SDS011;11261;52.456;10.850;2023-07-13T06:26:18;3.35;;;1.20;;
22191;SDS011;11261;52.456;10.850;2023-07-13T06:28:47;3.15;;;1.05;;
22191;SDS011;11261;52.456;10.850;2023-07-13T06:31:17;8.32;;;1.40;;
22191;SDS011;11261;52.456;10.850;2023-07-13T06:33:46;4.47;;;1.42;;
22191;SDS011;11261;52.456;10.850;2023-07-13T06:36:15;6.22;;;1.08;;
22191;SDS011;11261;52.456;10.850;2023-07-13T06:38:44;4.90;;;1.27;;
22191;SDS011;11261;52.456;10.850;2023-07-13T06:41:12;2.78;;;1.15;;
22191;SDS011;11261;52.456;10.850;2023-07-13T06:43:41;2.00;;;0.90;;
22191;SDS011;11261;52.456;10.850;2023-07-13T06:46:09;4.68;;;1.20;;
22191;SDS011;11261;52.456;10.850;2023-07-13T06:48:39;3.75;;;1.08;;
22191;SDS011;11261;52.456;10.850;2023-07-13T06:51:07;4.35;;;1.30;;
22191;SDS011;11261;52.456;10.850;2023-07-13T06:53:36;3.53;;;1.00;;
22191;SDS011;11261;52.456;10.850;2023-07-13T06:56:05;2.38;;;1.00;;
22191;SDS011;11261;52.456;10.850;2023-07-13T06:58:34;6.28;;;1.30;;
22191;SDS011;11261;52.456;10.850;2023-07-13T07:01:02;3.45;;;1.20;;
22191;SDS011;11261;52.456;10.850;2023-07-13T07:03:33;4.93;;;1.13;;
22191;SDS011;11261;52.456;10.850;2023-07-13T07:06:06;3.30;;;1.42;;
22191;SDS011;11261;52.456;10.850;2023-07-13T07:08:41;10.02;;;1.27;;
22191;SDS011;11261;52.456;10.850;2023-07-13T07:11:11;3.75;;;1.50;;
22191;SDS011;11261;52.456;10.850;2023-07-13T07:13:40;2.75;;;1.13;;
22191;SDS011;11261;52.456;10.850;2023-07-13T07:16:08;3.50;;;1.00;;
22191;SDS011;11261;52.456;10.850;2023-07-13T07:18:37;3.58;;;1.23;;
22191;SDS011;11261;52.456;10.850;2023-07-13T07:21:07;2.60;;;1.00;;
22191;SDS011;11261;52.456;10.850;2023-07-13T07:23:35;6.07;;;1.30;;
22191;SDS011;11261;52.456;10.850;2023-07-13T07:26:04;3.55;;;1.30;;
22191;SDS011;11261;52.456;10.850;2023-07-13T07:28:35;3.65;;;1.20;;
22191;SDS011;11261;52.456;10.850;2023-07-13T07:31:06;1.35;;;0.90;;
22191;SDS011;11261;52.456;10.850;2023-07-13T07:33:39;3.92;;;1.20;;
22191;SDS011;11261;52.456;10.850;2023-07-13T07:36:09;3.72;;;1.42;;
22191;SDS011;11261;52.456;10.850;2023-07-13T07:38:41;5.00;;;1.23;;
22191;SDS011;11261;52.456;10.850;2023-07-13T07:41:09;2.78;;;1.20;;
22191;SDS011;11261;52.456;10.850;2023-07-13T07:43:41;6.38;;;1.45;;
22191;SDS011;11261;52.456;10.850;2023-07-13T07:46:09;5.57;;;1.60;;
22191;SDS011;11261;52.456;10.850;2023-07-13T07:48:38;4.80;;;1.30;;
22191;SDS011;11261;52.456;10.850;2023-07-13T07:51:06;6.28;;;1.20;;
22191;SDS011;11261;52.456;10.850;2023-07-13T07:53:36;4.32;;;1.10;;
22191;SDS011;11261;52.456;10.850;2023-07-13T07:56:04;4.80;;;1.60;;
22191;SDS011;11261;52.456;10.850;2023-07-13T07:58:52;4.80;;;1.55;;
22191;SDS011;11261;52.456;10.850;2023-07-13T08:01:23;4.45;;;1.40;;
22191;SDS011;11261;52.456;10.850;2023-07-13T08:03:55;3.47;;;1.27;;
22191;SDS011;11261;52.456;10.850;2023-07-13T08:06:26;3.92;;;1.30;;
22191;SDS011;11261;52.456;10.850;2023-07-13T08:09:12;4.47;;;2.28;;
22191;SDS011;11261;52.456;10.850;2023-07-13T08:11:40;3.60;;;1.58;;
22191;SDS011;11261;52.456;10.850;2023-07-13T08:14:12;5.28;;;1.88;;
22191;SDS011;11261;52.456;10.850;2023-07-13T08:16:40;4.38;;;1.50;;
22191;SDS011;11261;52.456;10.850;2023-07-13T08:19:09;5.75;;;1.50;;
22191;SDS011;11261;52.456;10.850;2023-07-13T08:21:38;5.65;;;1.77;;
22191;SDS011;11261;52.456;10.850;2023-07-13T08:24:06;3.83;;;1.77;;
22191;SDS011;11261;52.456;10.850;2023-07-13T08:26:36;4.43;;;1.05;;
22191;SDS011;11261;52.456;10.850;2023-07-13T08:29:04;6.03;;;1.25;;
22191;SDS011;11261;52.456;10.850;2023-07-13T08:31:33;3.33;;;1.20;;
22191;SDS011;11261;52.456;10.850;2023-07-13T08:34:01;4.28;;;1.38;;
22191;SDS011;11261;52.456;10.850;2023-07-13T08:36:29;5.63;;;1.17;;
22191;SDS011;11261;52.456;10.850;2023-07-13T08:38:58;1.17;;;0.82;;
22191;SDS011;11261;52.456;10.850;2023-07-13T08:41:26;3.25;;;1.20;;
22191;SDS011;11261;52.456;10.850;2023-07-13T08:43:57;3.35;;;1.40;;
22191;SDS011;11261;52.456;10.850;2023-07-13T08:46:28;2.42;;;0.90;;
22191;SDS011;11261;52.456;10.850;2023-07-13T08:49:03;2.05;;;0.80;;
22191;SDS011;11261;52.456;10.850;2023-07-13T08:51:39;4.07;;;1.10;;
22191;SDS011;11261;52.456;10.850;2023-07-13T08:56:58;3.28;;;1.33;;
22191;SDS011;11261;52.456;10.850;2023-07-13T08:59:30;2.72;;;0.93;;
22191;SDS011;11261;52.456;10.850;2023-07-13T09:02:06;5.28;;;1.10;;
22191;SDS011;11261;52.456;10.850;2023-07-13T09:04:48;2.15;;;1.10;;
22191;SDS011;11261;52.456;10.850;2023-07-13T09:07:23;2.97;;;1.27;;
22191;SDS011;11261;52.456;10.850;2023-07-13T09:10:02;3.97;;;1.30;;
22191;SDS011;11261;52.456;10.850;2023-07-13T09:12:45;2.92;;;1.10;;
22191;SDS011;11261;52.456;10.850;2023-07-13T09:15:26;2.63;;;1.23;;
22191;SDS011;11261;52.456;10.850;2023-07-13T09:17:59;1.63;;;1.10;;
22191;SDS011;11261;52.456;10.850;2023-07-13T09:20:32;2.47;;;0.98;;
22191;SDS011;11261;52.456;10.850;2023-07-13T09:23:06;1.52;;;1.08;;
22191;SDS011;11261;52.456;10.850;2023-07-13T09:25:39;2.38;;;1.20;;
22191;SDS011;11261;52.456;10.850;2023-07-13T09:28:15;3.40;;;1.33;;
22191;SDS011;11261;52.456;10.850;2023-07-13T09:30:49;3.42;;;1.10;;
22191;SDS011;11261;52.456;10.850;2023-07-13T09:33:21;3.78;;;1.10;;
22191;SDS011;11261;52.456;10.850;2023-07-13T09:35:49;4.22;;;1.25;;
22191;SDS011;11261;52.456;10.850;2023-07-13T09:38:19;2.67;;;1.10;;
22191;SDS011;11261;52.456;10.850;2023-07-13T09:41:04;2.78;;;1.13;;
22191;SDS011;11261;52.456;10.850;2023-07-13T09:46:37;2.90;;;1.02;;
22191;SDS011;11261;52.456;10.850;2023-07-13T09:49:08;2.47;;;0.93;;
22191;SDS011;11261;52.456;10.850;2023-07-13T09:51:38;2.75;;;1.17;;
22191;SDS011;11261;52.456;10.850;2023-07-13T09:54:20;4.53;;;1.13;;
22191;SDS011;11261;52.456;10.850;2023-07-13T09:56:54;2.53;;;0.90;;
22191;SDS011;11261;52.456;10.850;2023-07-13T09:59:24;4.38;;;1.40;;
22191;SDS011;11261;52.456;10.850;2023-07-13T10:01:57;5.35;;;1.30;;
22191;SDS011;11261;52.456;10.850;2023-07-13T10:04:30;5.47;;;1.40;;
22191;SDS011;11261;52.456;10.850;2023-07-13T10:07:07;4.88;;;1.33;;
22191;SDS011;11261;52.456;10.850;2023-07-13T10:09:55;3.05;;;1.10;;
22191;SDS011;11261;52.456;10.850;2023-07-13T10:12:24;1.33;;;1.00;;
22191;SDS011;11261;52.456;10.850;2023-07-13T10:14:54;2.58;;;0.98;;
22191;SDS011;11261;52.456;10.850;2023-07-13T10:17:44;4.40;;;1.90;;
22191;SDS011;11261;52.456;10.850;2023-07-13T10:20:12;3.45;;;1.13;;
22191;SDS011;11261;52.456;10.850;2023-07-13T10:22:43;2.67;;;1.15;;
22191;SDS011;11261;52.456;10.850;2023-07-13T10:25:17;2.67;;;0.98;;
22191;SDS011;11261;52.456;10.850;2023-07-13T10:27:47;2.50;;;0.93;;
22191;SDS011;11261;52.456;10.850;2023-07-13T10:30:20;2.15;;;1.20;;
22191;SDS011;11261;52.456;10.850;2023-07-13T10:32:57;4.05;;;1.10;;
22191;SDS011;11261;52.456;10.850;2023-07-13T10:35:28;4.03;;;1.20;;
22191;SDS011;11261;52.456;10.850;2023-07-13T10:38:00;1.83;;;0.85;;
22191;SDS011;11261;52.456;10.850;2023-07-13T10:40:33;3.70;;;0.98;;
22191;SDS011;11261;52.456;10.850;2023-07-13T10:43:06;3.75;;;1.00;;
22191;SDS011;11261;52.456;10.850;2023-07-13T10:45:39;3.72;;;1.02;;
22191;SDS011;11261;52.456;10.850;2023-07-13T10:48:10;2.90;;;1.05;;
22191;SDS011;11261;52.456;10.850;2023-07-13T10:50:43;3.45;;;0.70;;
22191;SDS011;11261;52.456;10.850;2023-07-13T10:53:17;2.92;;;1.30;;
22191;SDS011;11261;52.456;10.850;2023-07-13T10:55:57;3.03;;;1.10;;
22191;SDS011;11261;52.456;10.850;2023-07-13T10:58:32;2.30;;;1.10;;
22191;SDS011;11261;52.456;10.850;2023-07-13T11:01:08;2.65;;;1.10;;
22191;SDS011;11261;52.456;10.850;2023-07-13T11:03:48;2.65;;;0.98;;
22191;SDS011;11261;52.456;10.850;2023-07-13T11:06:30;1.98;;;0.80;;
22191;SDS011;11261;52.456;10.850;2023-07-13T11:09:17;2.53;;;1.08;;
22191;SDS011;11261;52.456;10.850;2023-07-13T11:11:47;2.05;;;1.33;;
22191;SDS011;11261;52.456;10.850;2023-07-13T11:14:26;3.60;;;1.10;;
22191;SDS011;11261;52.456;10.850;2023-07-13T11:16:57;3.90;;;1.00;;
22191;SDS011;11261;52.456;10.850;2023-07-13T11:22:23;5.32;;;1.30;;
22191;SDS011;11261;52.456;10.850;2023-07-13T11:24:57;2.55;;;1.00;;
22191;SDS011;11261;52.456;10.850;2023-07-13T11:27:35;3.47;;;1.15;;
22191;SDS011;11261;52.456;10.850;2023-07-13T11:33:02;5.47;;;1.50;;
22191;SDS011;11261;52.456;10.850;2023-07-13T11:35:42;3.20;;;1.20;;
22191;SDS011;11261;52.456;10.850;2023-07-13T11:38:16;3.35;;;1.15;;
22191;SDS011;11261;52.456;10.850;2023-07-13T11:40:48;2.35;;;1.02;;
22191;SDS011;11261;52.456;10.850;2023-07-13T11:43:22;2.00;;;1.13;;
22191;SDS011;11261;52.456;10.850;2023-07-13T11:45:52;2.35;;;0.90;;
22191;SDS011;11261;52.456;10.850;2023-07-13T11:48:21;4.18;;;0.95;;
22191;SDS011;11261;52.456;10.850;2023-07-13T11:50:53;3.85;;;1.02;;
22191;SDS011;11261;52.456;10.850;2023-07-13T11:53:26;1.98;;;0.93;;
22191;SDS011;11261;52.456;10.850;2023-07-13T11:55:57;3.08;;;1.30;;
22191;SDS011;11261;52.456;10.850;2023-07-13T11:58:26;3.03;;;0.90;;
22191;SDS011;11261;52.456;10.850;2023-07-13T12:00:56;3.60;;;0.95;;
22191;SDS011;11261;52.456;10.850;2023-07-13T12:03:28;6.13;;;1.30;;
22191;SDS011;11261;52.456;10.850;2023-07-13T12:06:00;2.00;;;1.00;;
22191;SDS011;11261;52.456;10.850;2023-07-13T12:08:37;6.95;;;1.02;;
22191;SDS011;11261;52.456;10.850;2023-07-13T12:11:11;4.20;;;1.25;;
22191;SDS011;11261;52.456;10.850;2023-07-13T12:13:44;5.05;;;1.10;;
22191;SDS011;11261;52.456;10.850;2023-07-13T12:16:15;2.85;;;0.90;;
22191;SDS011;11261;52.456;10.850;2023-07-13T12:18:48;1.58;;;0.90;;
22191;SDS011;11261;52.456;10.850;2023-07-13T12:21:22;3.40;;;0.82;;
22191;SDS011;11261;52.456;10.850;2023-07-13T12:23:56;2.38;;;1.00;;
22191;SDS011;11261;52.456;10.850;2023-07-13T12:26:24;4.07;;;1.10;;
22191;SDS011;11261;52.456;10.850;2023-07-13T12:28:53;3.10;;;1.27;;
22191;SDS011;11261;52.456;10.850;2023-07-13T12:31:30;4.45;;;0.95;;
22191;SDS011;11261;52.456;10.850;2023-07-13T12:34:03;1.75;;;0.90;;
22191;SDS011;11261;52.456;10.850;2023-07-13T12:36:36;3.13;;;1.00;;
22191;SDS011;11261;52.456;10.850;2023-07-13T12:39:12;3.92;;;0.88;;
22191;SDS011;11261;52.456;10.850;2023-07-13T12:41:42;3.38;;;0.90;;
22191;SDS011;11261;52.456;10.850;2023-07-13T12:44:12;2.08;;;0.80;;
22191;SDS011;11261;52.456;10.850;2023-07-13T12:46:51;2.63;;;1.10;;
22191;SDS011;11261;52.456;10.850;2023-07-13T12:49:26;3.53;;;0.88;;
22191;SDS011;11261;52.456;10.850;2023-07-13T12:51:59;1.77;;;1.00;;
22191;SDS011;11261;52.456;10.850;2023-07-13T12:54:28;1.92;;;0.75;;
22191;SDS011;11261;52.456;10.850;2023-07-13T12:56:58;1.40;;;0.88;;
22191;SDS011;11261;52.456;10.850;2023-07-13T12:59:30;2.42;;;1.00;;
22191;SDS011;11261;52.456;10.850;2023-07-13T13:02:05;3.30;;;0.95;;
22191;SDS011;11261;52.456;10.850;2023-07-13T13:04:54;3.20;;;0.95;;
22191;SDS011;11261;52.456;10.850;2023-07-13T13:07:24;3.15;;;1.20;;
22191;SDS011;11261;52.456;10.850;2023-07-13T13:09:54;2.90;;;1.20;;
22191;SDS011;11261;52.456;10.850;2023-07-13T13:12:22;2.92;;;1.13;;
22191;SDS011;11261;52.456;10.850;2023-07-13T13:14:53;1.73;;;1.13;;
22191;SDS011;11261;52.456;10.850;2023-07-13T13:17:22;2.05;;;1.00;;
22191;SDS011;11261;52.456;10.850;2023-07-13T13:19:55;3.03;;;0.90;;
22191;SDS011;11261;52.456;10.850;2023-07-13T13:22:25;2.47;;;0.80;;
22191;SDS011;11261;52.456;10.850;2023-07-13T13:24:53;2.15;;;0.90;;
22191;SDS011;11261;52.456;10.850;2023-07-13T13:27:22;2.22;;;0.95;;
22191;SDS011;11261;52.456;10.850;2023-07-13T13:29:50;1.77;;;1.20;;
22191;SDS011;11261;52.456;10.850;2023-07-13T13:32:19;2.20;;;0.90;;
22191;SDS011;11261;52.456;10.850;2023-07-13T13:34:47;2.53;;;1.00;;
22191;SDS011;11261;52.456;10.850;2023-07-13T13:37:18;4.28;;;1.00;;
22191;SDS011;11261;52.456;10.850;2023-07-13T13:39:49;1.85;;;1.05;;
22191;SDS011;11261;52.456;10.850;2023-07-13T13:42:33;4.40;;;1.10;;
22191;SDS011;11261;52.456;10.850;2023-07-13T13:45:02;3.20;;;0.98;;
22191;SDS011;11261;52.456;10.850;2023-07-13T13:47:32;2.72;;;0.95;;
22191;SDS011;11261;52.456;10.850;2023-07-13T13:50:09;2.50;;;0.90;;
22191;SDS011;11261;52.456;10.850;2023-07-13T13:52:39;2.30;;;0.98;;
22191;SDS011;11261;52.456;10.850;2023-07-13T13:55:13;3.28;;;1.13;;
22191;SDS011;11261;52.456;10.850;2023-07-13T13:57:42;4.18;;;1.10;;
22191;SDS011;11261;52.456;10.850;2023-07-13T14:00:10;2.10;;;0.95;;
22191;SDS011;11261;52.456;10.850;2023-07-13T14:02:41;2.22;;;1.17;;
22191;SDS011;11261;52.456;10.850;2023-07-13T14:05:14;1.95;;;1.00;;
22191;SDS011;11261;52.456;10.850;2023-07-13T14:07:46;9.90;;;1.20;;
22191;SDS011;11261;52.456;10.850;2023-07-13T14:10:16;2.92;;;1.15;;
22191;SDS011;11261;52.456;10.850;2023-07-13T14:12:46;2.17;;;1.00;;
22191;SDS011;11261;52.456;10.850;2023-07-13T14:15:18;3.80;;;0.80;;
22191;SDS011;11261;52.456;10.850;2023-07-13T14:17:48;1.70;;;1.10;;
22191;SDS011;11261;52.456;10.850;2023-07-13T14:20:18;3.40;;;1.58;;
22191;SDS011;11261;52.456;10.850;2023-07-13T14:22:48;2.58;;;1.33;;
22191;SDS011;11261;52.456;10.850;2023-07-13T14:25:19;1.92;;;1.10;;
22191;SDS011;11261;52.456;10.850;2023-07-13T14:27:49;1.67;;;1.10;;
22191;SDS011;11261;52.456;10.850;2023-07-13T14:30:23;13.00;;;1.88;;
22191;SDS011;11261;52.456;10.850;2023-07-13T14:32:52;12.10;;;1.80;;
22191;SDS011;11261;52.456;10.850;2023-07-13T14:35:21;8.02;;;1.20;;
22191;SDS011;11261;52.456;10.850;2023-07-13T14:37:50;6.30;;;1.25;;
22191;SDS011;11261;52.456;10.850;2023-07-13T14:40:24;7.28;;;1.27;;
22191;SDS011;11261;52.456;10.850;2023-07-13T14:42:54;4.53;;;1.17;;
22191;SDS011;11261;52.456;10.850;2023-07-13T14:45:23;2.25;;;0.98;;
22191;SDS011;11261;52.456;10.850;2023-07-13T14:47:52;1.73;;;1.10;;
22191;SDS011;11261;52.456;10.850;2023-07-13T14:50:21;1.83;;;0.95;;
22191;SDS011;11261;52.456;10.850;2023-07-13T14:52:54;6.85;;;1.13;;
22191;SDS011;11261;52.456;10.850;2023-07-13T14:55:23;4.32;;;1.20;;
22191;SDS011;11261;52.456;10.850;2023-07-13T14:57:53;1.70;;;1.10;;
22191;SDS011;11261;52.456;10.850;2023-07-13T15:00:24;2.70;;;1.13;;
22191;SDS011;11261;52.456;10.850;2023-07-13T15:02:53;2.05;;;1.00;;
22191;SDS011;11261;52.456;10.850;2023-07-13T15:05:25;7.13;;;1.45;;